Meteo Giornale » Osservazioni meteo Stati Uniti (USA) » Batesville
ore: 13:56 - Osservazioni Meteo Batesville
Lat. 35° 44' N Lon. 91° 39' W Alt. 141 metri s.l.m.
36 °C
Nuvoloso
Temp. 24 Ore
22 °C
37 °C
Nord
0 Km/h
Dew point 18 °C
Umidità 34 %
Visibilità 10 Km
Il sole sorge alle ore 06:38
Il sole tramonta alle ore 19:35
| Data e Ora | Cielo e Fenomeni | T °C | DP °C | Um. % | Pres. hPa | Vis. km | Vento km/h | |
|---|---|---|---|---|---|---|---|---|
| Oggi h: 13:56 | Nuvoloso | 36 | 18 | 34 | 1017 | 10 | N 0 | |
| Oggi h: 08:56 | Sereno | 29 | 19 | 54 | 1019 | 10 | N 9.3 | |
| Oggi h: 07:56 | Sereno | 27 | 19 | 61 | 1019 | 10 | N 0 | |
| Oggi h: 06:56 | Sereno | 23 | 18 | 73 | 1018 | 10 | N 0 | |
| Oggi h: 05:56 | Sereno | 23 | 18 | 73 | 1018 | 10 | N 0 | |
| Oggi h: 04:56 | Sereno | 22 | 17 | 73 | 1017 | 10 | N 0 | |
| Oggi h: 03:56 | Sereno | 22 | 16 | 68 | 1017 | 10 | N 0 | |
| Oggi h: 02:56 | Sereno | 22 | 16 | 68 | 1017 | 10 | N 0 | |
| Oggi h: 01:56 | Sereno | 24 | 16 | 60 | 1017 | 10 | N 0 | |
| Oggi h: 00:56 | Sereno | 24 | 16 | 60 | 1017 | 10 | N 0 | |
| Ieri h: 23:56 | Sereno | 24 | 16 | 60 | 1017 | 10 | N 0 | |
| Ieri h: 22:56 | Sereno | 27 | 16 | 50 | 1017 | 10 | N 0 | |
| Ieri h: 21:56 | Sereno | 27 | 16 | 50 | 1017 | 10 | N 0 | |
| Ieri h: 20:56 | Sereno | 28 | 15 | 45 | 1016 | 10 | N 0 | |
| Ieri h: 19:56 | Sereno | 31 | 15 | 37 | 1016 | 10 | N 5.5 | |
| Ieri h: 18:56 | Sereno | 34 | 14 | 30 | 1016 | 10 | S 11.1 | |
| Ieri h: 17:56 | Sereno | 35 | 13 | 26 | 1016 | 10 | S 13 | |
| Ieri h: 16:56 | Sereno | 36 | 12 | 23 | 1016 | 10 | N 9.3 | |
| Ieri h: 15:56 | Sereno | 37 | 13 | 23 | 1016 | 10 | S/SE 18.5 | |
| Ieri h: 14:56 | Sereno | 36 | 11 | 22 | 1016 | 10 | S/SE 13 | |



